sensor_id;sensor_type;location;lat;lon;timestamp;P1;durP1;ratioP1;P2;durP2;ratioP2
9080;SDS011;13509;50.760;6.080;2022-09-27T00:00:28;3.03;;;1.40;;
9080;SDS011;13509;50.760;6.080;2022-09-27T00:02:57;2.80;;;1.27;;
9080;SDS011;13509;50.760;6.080;2022-09-27T00:05:25;2.63;;;1.30;;
9080;SDS011;13509;50.760;6.080;2022-09-27T00:07:54;2.30;;;1.40;;
9080;SDS011;13509;50.760;6.080;2022-09-27T00:10:23;4.80;;;1.67;;
9080;SDS011;13509;50.760;6.080;2022-09-27T00:12:51;6.67;;;1.70;;
9080;SDS011;13509;50.760;6.080;2022-09-27T00:15:19;4.63;;;1.30;;
9080;SDS011;13509;50.760;6.080;2022-09-27T00:17:48;4.97;;;1.80;;
9080;SDS011;13509;50.760;6.080;2022-09-27T00:20:18;2.70;;;1.70;;
9080;SDS011;13509;50.760;6.080;2022-09-27T00:22:46;2.33;;;1.90;;
9080;SDS011;13509;50.760;6.080;2022-09-27T00:25:16;3.90;;;1.60;;
9080;SDS011;13509;50.760;6.080;2022-09-27T00:27:45;5.27;;;2.20;;
9080;SDS011;13509;50.760;6.080;2022-09-27T00:30:13;5.07;;;2.40;;
9080;SDS011;13509;50.760;6.080;2022-09-27T00:32:41;4.40;;;2.40;;
9080;SDS011;13509;50.760;6.080;2022-09-27T00:35:10;3.50;;;2.43;;
9080;SDS011;13509;50.760;6.080;2022-09-27T00:37:38;5.90;;;3.00;;
9080;SDS011;13509;50.760;6.080;2022-09-27T00:40:07;5.00;;;2.83;;
9080;SDS011;13509;50.760;6.080;2022-09-27T00:42:37;7.63;;;3.13;;
9080;SDS011;13509;50.760;6.080;2022-09-27T00:45:06;5.00;;;3.50;;
9080;SDS011;13509;50.760;6.080;2022-09-27T00:47:40;5.73;;;3.70;;
9080;SDS011;13509;50.760;6.080;2022-09-27T00:50:13;5.70;;;3.40;;
9080;SDS011;13509;50.760;6.080;2022-09-27T00:52:45;7.53;;;3.60;;
9080;SDS011;13509;50.760;6.080;2022-09-27T00:55:16;4.80;;;3.50;;
9080;SDS011;13509;50.760;6.080;2022-09-27T00:57:46;7.83;;;3.40;;
9080;SDS011;13509;50.760;6.080;2022-09-27T01:00:15;5.13;;;3.37;;
9080;SDS011;13509;50.760;6.080;2022-09-27T01:02:44;7.67;;;3.97;;
9080;SDS011;13509;50.760;6.080;2022-09-27T01:05:14;7.23;;;3.40;;
9080;SDS011;13509;50.760;6.080;2022-09-27T01:07:42;6.17;;;4.07;;
9080;SDS011;13509;50.760;6.080;2022-09-27T01:10:10;3.90;;;2.87;;
9080;SDS011;13509;50.760;6.080;2022-09-27T01:12:41;3.83;;;3.07;;
9080;SDS011;13509;50.760;6.080;2022-09-27T01:15:16;5.43;;;3.23;;
9080;SDS011;13509;50.760;6.080;2022-09-27T01:17:48;7.57;;;3.50;;
9080;SDS011;13509;50.760;6.080;2022-09-27T01:23:10;5.53;;;3.40;;
9080;SDS011;13509;50.760;6.080;2022-09-27T01:25:46;6.53;;;3.80;;
9080;SDS011;13509;50.760;6.080;2022-09-27T01:28:19;5.73;;;4.10;;
9080;SDS011;13509;50.760;6.080;2022-09-27T01:30:52;4.77;;;4.23;;
9080;SDS011;13509;50.760;6.080;2022-09-27T01:33:22;5.77;;;4.00;;
9080;SDS011;13509;50.760;6.080;2022-09-27T01:35:57;7.47;;;3.90;;
9080;SDS011;13509;50.760;6.080;2022-09-27T01:38:29;4.27;;;3.87;;
9080;SDS011;13509;50.760;6.080;2022-09-27T01:41:00;9.13;;;4.27;;
9080;SDS011;13509;50.760;6.080;2022-09-27T01:43:32;5.57;;;3.90;;
9080;SDS011;13509;50.760;6.080;2022-09-27T01:46:07;9.73;;;3.60;;
9080;SDS011;13509;50.760;6.080;2022-09-27T01:48:36;5.13;;;2.80;;
9080;SDS011;13509;50.760;6.080;2022-09-27T01:51:07;4.87;;;2.33;;
9080;SDS011;13509;50.760;6.080;2022-09-27T01:53:37;5.33;;;2.10;;
9080;SDS011;13509;50.760;6.080;2022-09-27T01:56:06;4.53;;;2.20;;
9080;SDS011;13509;50.760;6.080;2022-09-27T01:58:38;3.47;;;1.90;;
9080;SDS011;13509;50.760;6.080;2022-09-27T02:01:08;2.03;;;1.53;;
9080;SDS011;13509;50.760;6.080;2022-09-27T02:03:38;2.37;;;1.37;;
9080;SDS011;13509;50.760;6.080;2022-09-27T02:06:08;4.10;;;1.80;;
9080;SDS011;13509;50.760;6.080;2022-09-27T02:08:39;3.30;;;1.60;;
9080;SDS011;13509;50.760;6.080;2022-09-27T02:11:09;2.53;;;1.60;;
9080;SDS011;13509;50.760;6.080;2022-09-27T02:13:39;3.70;;;1.57;;
9080;SDS011;13509;50.760;6.080;2022-09-27T02:16:11;5.27;;;1.57;;
9080;SDS011;13509;50.760;6.080;2022-09-27T02:18:44;4.30;;;1.40;;
9080;SDS011;13509;50.760;6.080;2022-09-27T02:21:13;2.73;;;1.30;;
9080;SDS011;13509;50.760;6.080;2022-09-27T02:23:42;2.77;;;1.80;;
9080;SDS011;13509;50.760;6.080;2022-09-27T02:26:14;3.77;;;1.93;;
9080;SDS011;13509;50.760;6.080;2022-09-27T02:28:44;4.57;;;1.90;;
9080;SDS011;13509;50.760;6.080;2022-09-27T02:31:16;4.40;;;1.80;;
9080;SDS011;13509;50.760;6.080;2022-09-27T02:33:46;2.70;;;1.60;;
9080;SDS011;13509;50.760;6.080;2022-09-27T02:36:15;4.27;;;1.80;;
9080;SDS011;13509;50.760;6.080;2022-09-27T02:38:43;2.43;;;1.60;;
9080;SDS011;13509;50.760;6.080;2022-09-27T02:41:12;2.63;;;1.23;;
9080;SDS011;13509;50.760;6.080;2022-09-27T02:43:42;1.73;;;1.20;;
9080;SDS011;13509;50.760;6.080;2022-09-27T02:46:21;3.33;;;1.73;;
9080;SDS011;13509;50.760;6.080;2022-09-27T02:48:54;1.57;;;1.33;;
9080;SDS011;13509;50.760;6.080;2022-09-27T02:51:27;3.17;;;1.60;;
9080;SDS011;13509;50.760;6.080;2022-09-27T02:54:03;3.23;;;2.00;;
9080;SDS011;13509;50.760;6.080;2022-09-27T02:56:37;4.37;;;2.40;;
9080;SDS011;13509;50.760;6.080;2022-09-27T02:59:09;2.67;;;2.40;;
9080;SDS011;13509;50.760;6.080;2022-09-27T03:01:42;4.13;;;2.80;;
9080;SDS011;13509;50.760;6.080;2022-09-27T03:04:16;3.70;;;2.47;;
9080;SDS011;13509;50.760;6.080;2022-09-27T03:06:46;3.57;;;2.70;;
9080;SDS011;13509;50.760;6.080;2022-09-27T03:09:17;6.67;;;2.83;;
9080;SDS011;13509;50.760;6.080;2022-09-27T03:11:45;5.80;;;2.60;;
9080;SDS011;13509;50.760;6.080;2022-09-27T03:14:14;6.80;;;2.33;;
9080;SDS011;13509;50.760;6.080;2022-09-27T03:16:44;5.10;;;2.53;;
9080;SDS011;13509;50.760;6.080;2022-09-27T03:19:12;4.30;;;2.07;;
9080;SDS011;13509;50.760;6.080;2022-09-27T03:21:40;3.43;;;2.60;;
9080;SDS011;13509;50.760;6.080;2022-09-27T03:24:08;4.00;;;2.63;;
9080;SDS011;13509;50.760;6.080;2022-09-27T03:26:37;5.10;;;2.83;;
9080;SDS011;13509;50.760;6.080;2022-09-27T03:29:05;6.03;;;3.50;;
9080;SDS011;13509;50.760;6.080;2022-09-27T03:31:33;3.73;;;3.43;;
9080;SDS011;13509;50.760;6.080;2022-09-27T03:34:03;4.70;;;3.60;;
9080;SDS011;13509;50.760;6.080;2022-09-27T03:36:31;4.23;;;3.57;;
9080;SDS011;13509;50.760;6.080;2022-09-27T03:38:59;9.03;;;3.83;;
9080;SDS011;13509;50.760;6.080;2022-09-27T03:41:27;6.73;;;4.20;;
9080;SDS011;13509;50.760;6.080;2022-09-27T03:43:56;6.83;;;4.23;;
9080;SDS011;13509;50.760;6.080;2022-09-27T03:46:25;3.63;;;3.33;;
9080;SDS011;13509;50.760;6.080;2022-09-27T03:48:53;6.50;;;3.83;;
9080;SDS011;13509;50.760;6.080;2022-09-27T03:51:23;4.43;;;3.43;;
9080;SDS011;13509;50.760;6.080;2022-09-27T03:53:51;5.43;;;3.30;;
9080;SDS011;13509;50.760;6.080;2022-09-27T03:56:19;5.60;;;3.50;;
9080;SDS011;13509;50.760;6.080;2022-09-27T03:58:47;4.90;;;3.37;;
9080;SDS011;13509;50.760;6.080;2022-09-27T04:01:16;6.40;;;2.90;;
9080;SDS011;13509;50.760;6.080;2022-09-27T04:03:44;3.83;;;3.33;;
9080;SDS011;13509;50.760;6.080;2022-09-27T04:06:12;3.70;;;2.70;;
9080;SDS011;13509;50.760;6.080;2022-09-27T04:08:42;5.93;;;2.97;;
9080;SDS011;13509;50.760;6.080;2022-09-27T04:11:11;3.87;;;2.63;;
9080;SDS011;13509;50.760;6.080;2022-09-27T04:13:40;5.17;;;3.10;;
9080;SDS011;13509;50.760;6.080;2022-09-27T04:16:09;4.77;;;2.73;;
9080;SDS011;13509;50.760;6.080;2022-09-27T04:18:37;7.73;;;2.43;;
9080;SDS011;13509;50.760;6.080;2022-09-27T04:21:06;2.73;;;1.90;;
9080;SDS011;13509;50.760;6.080;2022-09-27T04:23:34;4.73;;;2.50;;
9080;SDS011;13509;50.760;6.080;2022-09-27T04:26:04;3.83;;;2.13;;
9080;SDS011;13509;50.760;6.080;2022-09-27T04:28:32;3.57;;;1.90;;
9080;SDS011;13509;50.760;6.080;2022-09-27T04:31:00;11.07;;;2.27;;
9080;SDS011;13509;50.760;6.080;2022-09-27T04:33:29;4.60;;;2.00;;
9080;SDS011;13509;50.760;6.080;2022-09-27T04:35:57;4.90;;;2.20;;
9080;SDS011;13509;50.760;6.080;2022-09-27T04:38:43;4.70;;;2.33;;
9080;SDS011;13509;50.760;6.080;2022-09-27T04:41:12;3.87;;;2.57;;
9080;SDS011;13509;50.760;6.080;2022-09-27T04:43:41;5.23;;;2.77;;
9080;SDS011;13509;50.760;6.080;2022-09-27T04:46:09;5.50;;;2.90;;
9080;SDS011;13509;50.760;6.080;2022-09-27T04:48:39;5.20;;;2.80;;
9080;SDS011;13509;50.760;6.080;2022-09-27T04:51:08;3.73;;;2.83;;
9080;SDS011;13509;50.760;6.080;2022-09-27T04:53:36;6.97;;;2.80;;
9080;SDS011;13509;50.760;6.080;2022-09-27T04:56:05;4.13;;;2.60;;
9080;SDS011;13509;50.760;6.080;2022-09-27T04:58:34;3.93;;;2.70;;
9080;SDS011;13509;50.760;6.080;2022-09-27T05:01:03;7.20;;;2.43;;
9080;SDS011;13509;50.760;6.080;2022-09-27T05:03:32;4.00;;;3.47;;
9080;SDS011;13509;50.760;6.080;2022-09-27T05:06:00;3.87;;;3.40;;
9080;SDS011;13509;50.760;6.080;2022-09-27T05:08:28;6.47;;;3.20;;
9080;SDS011;13509;50.760;6.080;2022-09-27T05:10:57;3.27;;;2.93;;
9080;SDS011;13509;50.760;6.080;2022-09-27T05:13:26;4.53;;;3.20;;
9080;SDS011;13509;50.760;6.080;2022-09-27T05:16:00;4.30;;;2.77;;
9080;SDS011;13509;50.760;6.080;2022-09-27T05:18:28;5.83;;;2.77;;
9080;SDS011;13509;50.760;6.080;2022-09-27T05:20:57;4.80;;;3.00;;
9080;SDS011;13509;50.760;6.080;2022-09-27T05:23:25;3.30;;;2.47;;
9080;SDS011;13509;50.760;6.080;2022-09-27T05:25:53;3.13;;;2.83;;
9080;SDS011;13509;50.760;6.080;2022-09-27T05:28:22;3.23;;;2.00;;
9080;SDS011;13509;50.760;6.080;2022-09-27T05:30:50;2.20;;;2.00;;
9080;SDS011;13509;50.760;6.080;2022-09-27T05:33:20;6.53;;;2.50;;
9080;SDS011;13509;50.760;6.080;2022-09-27T05:35:51;5.07;;;2.33;;
9080;SDS011;13509;50.760;6.080;2022-09-27T05:38:20;3.70;;;2.33;;
9080;SDS011;13509;50.760;6.080;2022-09-27T05:40:48;3.50;;;2.10;;
9080;SDS011;13509;50.760;6.080;2022-09-27T05:43:17;5.00;;;2.33;;
9080;SDS011;13509;50.760;6.080;2022-09-27T05:45:46;4.30;;;2.10;;
9080;SDS011;13509;50.760;6.080;2022-09-27T05:48:15;3.67;;;2.50;;
9080;SDS011;13509;50.760;6.080;2022-09-27T05:50:44;7.07;;;2.67;;
9080;SDS011;13509;50.760;6.080;2022-09-27T05:53:13;3.77;;;1.97;;
9080;SDS011;13509;50.760;6.080;2022-09-27T05:55:41;5.47;;;2.50;;
9080;SDS011;13509;50.760;6.080;2022-09-27T05:58:09;4.90;;;2.40;;
9080;SDS011;13509;50.760;6.080;2022-09-27T06:00:38;4.40;;;2.50;;
9080;SDS011;13509;50.760;6.080;2022-09-27T06:03:07;3.27;;;2.00;;
9080;SDS011;13509;50.760;6.080;2022-09-27T06:05:36;3.17;;;1.90;;
9080;SDS011;13509;50.760;6.080;2022-09-27T06:08:07;3.47;;;2.10;;
9080;SDS011;13509;50.760;6.080;2022-09-27T06:10:35;2.80;;;2.37;;
9080;SDS011;13509;50.760;6.080;2022-09-27T06:13:05;2.63;;;2.33;;
9080;SDS011;13509;50.760;6.080;2022-09-27T06:15:35;4.00;;;2.33;;
9080;SDS011;13509;50.760;6.080;2022-09-27T06:18:05;2.37;;;2.17;;
9080;SDS011;13509;50.760;6.080;2022-09-27T06:20:35;3.00;;;2.40;;
9080;SDS011;13509;50.760;6.080;2022-09-27T06:23:06;6.50;;;2.40;;
9080;SDS011;13509;50.760;6.080;2022-09-27T06:25:34;7.80;;;2.80;;
9080;SDS011;13509;50.760;6.080;2022-09-27T06:28:03;6.23;;;2.63;;
9080;SDS011;13509;50.760;6.080;2022-09-27T06:30:31;4.53;;;2.07;;
9080;SDS011;13509;50.760;6.080;2022-09-27T06:33:00;3.13;;;2.00;;
9080;SDS011;13509;50.760;6.080;2022-09-27T06:35:28;2.43;;;1.90;;
9080;SDS011;13509;50.760;6.080;2022-09-27T06:37:57;1.60;;;1.50;;
9080;SDS011;13509;50.760;6.080;2022-09-27T06:40:27;1.90;;;1.40;;
9080;SDS011;13509;50.760;6.080;2022-09-27T06:43:00;2.30;;;1.77;;
9080;SDS011;13509;50.760;6.080;2022-09-27T06:45:29;2.97;;;1.70;;
9080;SDS011;13509;50.760;6.080;2022-09-27T06:47:57;3.10;;;1.90;;
9080;SDS011;13509;50.760;6.080;2022-09-27T06:50:27;3.80;;;1.67;;
9080;SDS011;13509;50.760;6.080;2022-09-27T06:52:55;2.57;;;2.37;;
9080;SDS011;13509;50.760;6.080;2022-09-27T06:55:24;2.80;;;2.30;;
9080;SDS011;13509;50.760;6.080;2022-09-27T06:57:54;3.77;;;2.60;;
9080;SDS011;13509;50.760;6.080;2022-09-27T07:00:39;3.07;;;2.50;;
9080;SDS011;13509;50.760;6.080;2022-09-27T07:03:08;3.47;;;2.90;;
9080;SDS011;13509;50.760;6.080;2022-09-27T07:05:37;4.20;;;2.40;;
9080;SDS011;13509;50.760;6.080;2022-09-27T07:08:06;2.93;;;2.27;;
9080;SDS011;13509;50.760;6.080;2022-09-27T07:10:35;3.17;;;2.30;;
9080;SDS011;13509;50.760;6.080;2022-09-27T07:13:05;3.70;;;2.40;;
9080;SDS011;13509;50.760;6.080;2022-09-27T07:15:33;4.80;;;2.57;;
9080;SDS011;13509;50.760;6.080;2022-09-27T07:18:03;3.20;;;2.50;;
9080;SDS011;13509;50.760;6.080;2022-09-27T07:20:32;4.07;;;2.73;;
9080;SDS011;13509;50.760;6.080;2022-09-27T07:23:02;3.23;;;2.50;;
9080;SDS011;13509;50.760;6.080;2022-09-27T07:25:31;5.17;;;2.87;;
9080;SDS011;13509;50.760;6.080;2022-09-27T07:27:59;5.10;;;3.10;;
9080;SDS011;13509;50.760;6.080;2022-09-27T07:30:30;4.27;;;3.00;;
9080;SDS011;13509;50.760;6.080;2022-09-27T07:32:59;4.07;;;2.80;;
9080;SDS011;13509;50.760;6.080;2022-09-27T07:35:27;5.33;;;3.70;;
9080;SDS011;13509;50.760;6.080;2022-09-27T07:37:56;5.73;;;3.27;;
9080;SDS011;13509;50.760;6.080;2022-09-27T07:40:24;8.77;;;3.60;;
9080;SDS011;13509;50.760;6.080;2022-09-27T07:42:53;3.87;;;3.20;;
9080;SDS011;13509;50.760;6.080;2022-09-27T07:45:22;7.00;;;3.20;;
9080;SDS011;13509;50.760;6.080;2022-09-27T07:47:51;4.43;;;2.97;;
9080;SDS011;13509;50.760;6.080;2022-09-27T07:50:20;5.27;;;2.83;;
9080;SDS011;13509;50.760;6.080;2022-09-27T07:52:48;3.37;;;3.03;;
9080;SDS011;13509;50.760;6.080;2022-09-27T07:55:17;6.43;;;2.83;;
9080;SDS011;13509;50.760;6.080;2022-09-27T07:57:45;3.50;;;2.73;;
9080;SDS011;13509;50.760;6.080;2022-09-27T08:00:14;3.97;;;2.47;;
9080;SDS011;13509;50.760;6.080;2022-09-27T08:02:44;4.57;;;2.30;;
9080;SDS011;13509;50.760;6.080;2022-09-27T08:05:14;5.60;;;2.83;;
9080;SDS011;13509;50.760;6.080;2022-09-27T08:07:42;3.87;;;2.80;;
9080;SDS011;13509;50.760;6.080;2022-09-27T08:10:10;4.57;;;2.40;;
9080;SDS011;13509;50.760;6.080;2022-09-27T08:12:38;7.23;;;2.20;;
9080;SDS011;13509;50.760;6.080;2022-09-27T08:15:07;6.67;;;2.03;;
9080;SDS011;13509;50.760;6.080;2022-09-27T08:17:35;5.30;;;2.10;;
9080;SDS011;13509;50.760;6.080;2022-09-27T08:20:04;3.13;;;2.47;;
9080;SDS011;13509;50.760;6.080;2022-09-27T08:22:35;2.97;;;2.27;;
9080;SDS011;13509;50.760;6.080;2022-09-27T08:25:06;2.87;;;2.33;;
9080;SDS011;13509;50.760;6.080;2022-09-27T08:27:35;2.33;;;2.03;;
9080;SDS011;13509;50.760;6.080;2022-09-27T08:30:03;3.20;;;2.40;;
9080;SDS011;13509;50.760;6.080;2022-09-27T08:32:32;3.77;;;1.93;;
9080;SDS011;13509;50.760;6.080;2022-09-27T08:35:00;3.33;;;1.80;;
9080;SDS011;13509;50.760;6.080;2022-09-27T08:37:28;2.37;;;1.63;;
9080;SDS011;13509;50.760;6.080;2022-09-27T08:39:58;2.80;;;1.70;;
9080;SDS011;13509;50.760;6.080;2022-09-27T08:42:27;2.17;;;1.80;;
9080;SDS011;13509;50.760;6.080;2022-09-27T08:44:58;2.50;;;1.83;;
9080;SDS011;13509;50.760;6.080;2022-09-27T08:47:30;2.20;;;1.70;;
9080;SDS011;13509;50.760;6.080;2022-09-27T08:50:01;2.63;;;1.80;;
9080;SDS011;13509;50.760;6.080;2022-09-27T08:52:30;2.60;;;2.00;;
9080;SDS011;13509;50.760;6.080;2022-09-27T08:55:03;2.27;;;1.90;;
9080;SDS011;13509;50.760;6.080;2022-09-27T08:57:33;2.10;;;1.90;;
9080;SDS011;13509;50.760;6.080;2022-09-27T09:00:05;3.30;;;2.20;;
9080;SDS011;13509;50.760;6.080;2022-09-27T09:02:34;2.43;;;2.00;;
9080;SDS011;13509;50.760;6.080;2022-09-27T09:05:05;2.43;;;2.10;;
9080;SDS011;13509;50.760;6.080;2022-09-27T09:07:41;2.60;;;2.40;;
9080;SDS011;13509;50.760;6.080;2022-09-27T09:10:18;4.63;;;2.27;;
9080;SDS011;13509;50.760;6.080;2022-09-27T09:13:04;3.43;;;2.43;;
9080;SDS011;13509;50.760;6.080;2022-09-27T09:15:36;2.80;;;2.50;;
9080;SDS011;13509;50.760;6.080;2022-09-27T09:18:24;3.20;;;2.90;;
9080;SDS011;13509;50.760;6.080;2022-09-27T09:20:54;4.93;;;2.70;;
9080;SDS011;13509;50.760;6.080;2022-09-27T09:23:32;6.20;;;3.27;;
9080;SDS011;13509;50.760;6.080;2022-09-27T09:26:08;5.63;;;3.77;;
9080;SDS011;13509;50.760;6.080;2022-09-27T09:28:46;5.10;;;4.20;;
9080;SDS011;13509;50.760;6.080;2022-09-27T09:31:18;6.30;;;3.97;;
9080;SDS011;13509;50.760;6.080;2022-09-27T09:33:48;6.17;;;4.23;;
9080;SDS011;13509;50.760;6.080;2022-09-27T09:36:19;6.90;;;4.60;;
9080;SDS011;13509;50.760;6.080;2022-09-27T09:38:51;7.10;;;4.70;;
9080;SDS011;13509;50.760;6.080;2022-09-27T09:41:23;5.97;;;4.70;;
9080;SDS011;13509;50.760;6.080;2022-09-27T09:43:54;8.00;;;5.07;;
9080;SDS011;13509;50.760;6.080;2022-09-27T09:46:24;8.37;;;5.13;;
9080;SDS011;13509;50.760;6.080;2022-09-27T09:48:54;8.10;;;4.87;;
9080;SDS011;13509;50.760;6.080;2022-09-27T09:51:26;6.63;;;4.67;;
9080;SDS011;13509;50.760;6.080;2022-09-27T09:53:56;7.23;;;6.50;;
9080;SDS011;13509;50.760;6.080;2022-09-27T09:56:28;6.97;;;5.00;;
9080;SDS011;13509;50.760;6.080;2022-09-27T09:58:58;6.07;;;4.50;;
9080;SDS011;13509;50.760;6.080;2022-09-27T10:01:29;6.03;;;4.30;;
9080;SDS011;13509;50.760;6.080;2022-09-27T10:04:00;7.23;;;4.30;;
9080;SDS011;13509;50.760;6.080;2022-09-27T10:06:29;5.73;;;3.90;;
9080;SDS011;13509;50.760;6.080;2022-09-27T10:08:57;6.13;;;3.90;;
9080;SDS011;13509;50.760;6.080;2022-09-27T10:11:28;4.53;;;3.87;;
9080;SDS011;13509;50.760;6.080;2022-09-27T10:13:58;4.93;;;3.60;;
9080;SDS011;13509;50.760;6.080;2022-09-27T10:16:27;4.87;;;3.60;;
9080;SDS011;13509;50.760;6.080;2022-09-27T10:18:56;4.60;;;3.80;;
9080;SDS011;13509;50.760;6.080;2022-09-27T10:21:27;5.60;;;4.07;;
9080;SDS011;13509;50.760;6.080;2022-09-27T10:24:07;3.90;;;3.50;;
9080;SDS011;13509;50.760;6.080;2022-09-27T10:26:44;6.37;;;3.53;;
9080;SDS011;13509;50.760;6.080;2022-09-27T10:29:13;7.70;;;2.97;;
9080;SDS011;13509;50.760;6.080;2022-09-27T10:31:42;4.90;;;3.00;;
9080;SDS011;13509;50.760;6.080;2022-09-27T10:34:20;4.93;;;3.10;;
9080;SDS011;13509;50.760;6.080;2022-09-27T10:37:05;5.00;;;2.90;;
9080;SDS011;13509;50.760;6.080;2022-09-27T10:39:33;3.73;;;2.80;;
9080;SDS011;13509;50.760;6.080;2022-09-27T10:42:04;4.10;;;2.70;;
9080;SDS011;13509;50.760;6.080;2022-09-27T10:44:46;4.00;;;2.70;;
9080;SDS011;13509;50.760;6.080;2022-09-27T10:47:16;3.33;;;2.60;;
9080;SDS011;13509;50.760;6.080;2022-09-27T10:49:48;6.70;;;2.60;;
9080;SDS011;13509;50.760;6.080;2022-09-27T10:52:18;4.17;;;2.50;;
9080;SDS011;13509;50.760;6.080;2022-09-27T10:54:51;3.00;;;2.70;;
9080;SDS011;13509;50.760;6.080;2022-09-27T10:57:22;4.53;;;2.40;;
9080;SDS011;13509;50.760;6.080;2022-09-27T10:59:50;3.27;;;2.00;;
9080;SDS011;13509;50.760;6.080;2022-09-27T11:02:20;3.33;;;2.30;;
9080;SDS011;13509;50.760;6.080;2022-09-27T11:07:31;4.10;;;2.00;;
9080;SDS011;13509;50.760;6.080;2022-09-27T11:09:59;2.33;;;2.00;;
9080;SDS011;13509;50.760;6.080;2022-09-27T11:12:30;2.30;;;2.00;;
9080;SDS011;13509;50.760;6.080;2022-09-27T11:15:01;5.77;;;2.20;;
9080;SDS011;13509;50.760;6.080;2022-09-27T11:17:33;5.33;;;2.00;;
9080;SDS011;13509;50.760;6.080;2022-09-27T11:20:05;2.63;;;1.40;;
9080;SDS011;13509;50.760;6.080;2022-09-27T11:22:39;1.40;;;1.30;;
9080;SDS011;13509;50.760;6.080;2022-09-27T11:25:14;3.77;;;1.10;;
9080;SDS011;13509;50.760;6.080;2022-09-27T11:27:47;2.27;;;1.00;;
9080;SDS011;13509;50.760;6.080;2022-09-27T11:30:20;3.57;;;1.20;;
9080;SDS011;13509;50.760;6.080;2022-09-27T11:35:36;1.20;;;1.10;;
9080;SDS011;13509;50.760;6.080;2022-09-27T11:38:22;1.03;;;0.90;;
9080;SDS011;13509;50.760;6.080;2022-09-27T11:41:23;2.23;;;1.17;;
9080;SDS011;13509;50.760;6.080;2022-09-27T11:44:03;1.90;;;1.20;;
9080;SDS011;13509;50.760;6.080;2022-09-27T11:46:35;3.63;;;1.50;;
9080;SDS011;13509;50.760;6.080;2022-09-27T11:52:12;3.23;;;1.27;;
9080;SDS011;13509;50.760;6.080;2022-09-27T11:54:50;2.00;;;1.33;;
9080;SDS011;13509;50.760;6.080;2022-09-27T11:57:21;2.53;;;1.27;;
9080;SDS011;13509;50.760;6.080;2022-09-27T12:00:04;4.20;;;1.30;;
9080;SDS011;13509;50.760;6.080;2022-09-27T12:02:39;7.17;;;1.50;;
9080;SDS011;13509;50.760;6.080;2022-09-27T12:05:15;3.30;;;1.30;;
9080;SDS011;13509;50.760;6.080;2022-09-27T12:07:48;1.80;;;1.30;;
9080;SDS011;13509;50.760;6.080;2022-09-27T12:10:18;1.63;;;1.43;;
9080;SDS011;13509;50.760;6.080;2022-09-27T12:12:49;2.83;;;1.40;;
9080;SDS011;13509;50.760;6.080;2022-09-27T12:15:20;2.77;;;1.50;;
9080;SDS011;13509;50.760;6.080;2022-09-27T12:17:51;1.43;;;1.30;;
9080;SDS011;13509;50.760;6.080;2022-09-27T12:20:21;2.43;;;1.13;;
9080;SDS011;13509;50.760;6.080;2022-09-27T12:22:52;3.53;;;1.40;;
9080;SDS011;13509;50.760;6.080;2022-09-27T12:25:26;1.30;;;1.20;;
9080;SDS011;13509;50.760;6.080;2022-09-27T12:27:57;1.67;;;1.20;;
9080;SDS011;13509;50.760;6.080;2022-09-27T12:30:29;3.33;;;1.20;;
9080;SDS011;13509;50.760;6.080;2022-09-27T12:33:00;3.40;;;1.13;;
9080;SDS011;13509;50.760;6.080;2022-09-27T12:35:33;2.10;;;1.17;;
9080;SDS011;13509;50.760;6.080;2022-09-27T12:38:04;1.40;;;1.13;;
9080;SDS011;13509;50.760;6.080;2022-09-27T12:40:33;2.53;;;1.30;;
9080;SDS011;13509;50.760;6.080;2022-09-27T12:43:05;2.60;;;1.00;;
9080;SDS011;13509;50.760;6.080;2022-09-27T12:45:38;2.43;;;1.00;;
9080;SDS011;13509;50.760;6.080;2022-09-27T12:48:13;1.20;;;0.87;;
9080;SDS011;13509;50.760;6.080;2022-09-27T12:50:51;3.60;;;0.90;;
9080;SDS011;13509;50.760;6.080;2022-09-27T12:53:20;2.23;;;1.03;;
9080;SDS011;13509;50.760;6.080;2022-09-27T12:55:54;2.20;;;0.90;;
9080;SDS011;13509;50.760;6.080;2022-09-27T12:58:30;1.40;;;0.83;;
9080;SDS011;13509;50.760;6.080;2022-09-27T13:01:03;1.23;;;0.80;;
9080;SDS011;13509;50.760;6.080;2022-09-27T13:03:48;2.67;;;0.97;;
9080;SDS011;13509;50.760;6.080;2022-09-27T13:11:56;3.20;;;1.23;;
9080;SDS011;13509;50.760;6.080;2022-09-27T13:14:27;1.83;;;0.90;;
9080;SDS011;13509;50.760;6.080;2022-09-27T13:16:57;0.93;;;0.90;;
9080;SDS011;13509;50.760;6.080;2022-09-27T13:24:55;2.00;;;1.07;;
9080;SDS011;13509;50.760;6.080;2022-09-27T13:27:36;2.00;;;1.37;;
9080;SDS011;13509;50.760;6.080;2022-09-27T13:35:45;9.47;;;1.70;;
9080;SDS011;13509;50.760;6.080;2022-09-27T13:38:31;2.27;;;1.20;;
9080;SDS011;13509;50.760;6.080;2022-09-27T13:41:12;6.47;;;1.60;;
9080;SDS011;13509;50.760;6.080;2022-09-27T13:43:51;1.30;;;1.13;;
9080;SDS011;13509;50.760;6.080;2022-09-27T13:46:25;2.77;;;1.43;;
9080;SDS011;13509;50.760;6.080;2022-09-27T13:48:54;4.13;;;1.60;;
9080;SDS011;13509;50.760;6.080;2022-09-27T13:51:29;2.73;;;1.30;;
9080;SDS011;13509;50.760;6.080;2022-09-27T13:54:01;1.90;;;0.97;;
9080;SDS011;13509;50.760;6.080;2022-09-27T13:56:49;4.03;;;1.50;;
9080;SDS011;13509;50.760;6.080;2022-09-27T13:59:18;3.07;;;1.37;;
9080;SDS011;13509;50.760;6.080;2022-09-27T14:01:48;3.30;;;1.43;;
9080;SDS011;13509;50.760;6.080;2022-09-27T14:04:19;2.47;;;1.30;;
9080;SDS011;13509;50.760;6.080;2022-09-27T14:06:49;3.43;;;1.30;;
9080;SDS011;13509;50.760;6.080;2022-09-27T14:09:19;4.90;;;1.63;;
9080;SDS011;13509;50.760;6.080;2022-09-27T14:11:48;2.57;;;1.13;;
9080;SDS011;13509;50.760;6.080;2022-09-27T14:14:22;4.80;;;1.20;;
9080;SDS011;13509;50.760;6.080;2022-09-27T14:16:51;3.27;;;1.20;;
9080;SDS011;13509;50.760;6.080;2022-09-27T14:19:20;6.00;;;1.30;;
9080;SDS011;13509;50.760;6.080;2022-09-27T14:21:50;1.63;;;1.27;;
9080;SDS011;13509;50.760;6.080;2022-09-27T14:24:23;2.43;;;1.17;;
9080;SDS011;13509;50.760;6.080;2022-09-27T14:27:02;2.37;;;1.37;;
9080;SDS011;13509;50.760;6.080;2022-09-27T14:29:32;1.53;;;1.20;;
9080;SDS011;13509;50.760;6.080;2022-09-27T14:32:04;5.03;;;1.33;;
9080;SDS011;13509;50.760;6.080;2022-09-27T14:34:34;1.53;;;1.07;;
9080;SDS011;13509;50.760;6.080;2022-09-27T14:37:03;1.60;;;1.20;;
9080;SDS011;13509;50.760;6.080;2022-09-27T14:39:52;4.27;;;1.10;;
9080;SDS011;13509;50.760;6.080;2022-09-27T14:42:22;1.07;;;0.97;;
9080;SDS011;13509;50.760;6.080;2022-09-27T14:44:51;3.17;;;1.10;;
9080;SDS011;13509;50.760;6.080;2022-09-27T14:47:20;1.70;;;1.13;;
9080;SDS011;13509;50.760;6.080;2022-09-27T14:49:49;2.00;;;1.33;;
9080;SDS011;13509;50.760;6.080;2022-09-27T14:52:20;3.23;;;1.50;;
9080;SDS011;13509;50.760;6.080;2022-09-27T14:54:56;3.30;;;1.53;;
9080;SDS011;13509;50.760;6.080;2022-09-27T14:57:25;4.50;;;1.40;;
9080;SDS011;13509;50.760;6.080;2022-09-27T14:59:55;3.13;;;1.40;;
9080;SDS011;13509;50.760;6.080;2022-09-27T15:02:26;3.53;;;1.30;;
9080;SDS011;13509;50.760;6.080;2022-09-27T15:04:54;4.10;;;1.53;;
9080;SDS011;13509;50.760;6.080;2022-09-27T15:07:23;3.93;;;1.53;;
9080;SDS011;13509;50.760;6.080;2022-09-27T15:09:52;3.30;;;1.50;;
9080;SDS011;13509;50.760;6.080;2022-09-27T15:12:22;3.90;;;1.70;;
9080;SDS011;13509;50.760;6.080;2022-09-27T15:14:54;2.90;;;1.50;;
9080;SDS011;13509;50.760;6.080;2022-09-27T15:17:24;4.83;;;1.73;;
9080;SDS011;13509;50.760;6.080;2022-09-27T15:19:59;2.70;;;1.80;;
9080;SDS011;13509;50.760;6.080;2022-09-27T15:22:32;4.07;;;1.83;;
9080;SDS011;13509;50.760;6.080;2022-09-27T15:25:05;5.00;;;1.93;;
9080;SDS011;13509;50.760;6.080;2022-09-27T15:27:34;6.07;;;2.20;;
9080;SDS011;13509;50.760;6.080;2022-09-27T15:30:04;4.17;;;1.90;;
9080;SDS011;13509;50.760;6.080;2022-09-27T15:32:32;5.83;;;2.17;;
9080;SDS011;13509;50.760;6.080;2022-09-27T15:35:05;3.77;;;2.33;;
9080;SDS011;13509;50.760;6.080;2022-09-27T15:37:35;8.80;;;2.53;;
9080;SDS011;13509;50.760;6.080;2022-09-27T15:40:07;3.37;;;2.60;;
9080;SDS011;13509;50.760;6.080;2022-09-27T15:42:56;5.17;;;2.50;;
9080;SDS011;13509;50.760;6.080;2022-09-27T15:45:28;5.83;;;2.40;;
9080;SDS011;13509;50.760;6.080;2022-09-27T15:47:57;4.67;;;2.50;;
9080;SDS011;13509;50.760;6.080;2022-09-27T15:50:33;5.00;;;3.10;;